sensor_id;sensor_type;location;lat;lon;timestamp;pressure;altitude;pressure_sealevel;temperature;humidity
43838;BME280;29493;46.516;6.638;2022-08-19T00:01:19;95613.69;;;18.62;100.00
43838;BME280;29493;46.516;6.638;2022-08-19T00:03:44;95608.31;;;18.64;100.00
43838;BME280;29493;46.516;6.638;2022-08-19T00:06:10;95604.56;;;18.61;100.00
43838;BME280;29493;46.516;6.638;2022-08-19T00:08:36;95609.72;;;18.57;100.00
43838;BME280;29493;46.516;6.638;2022-08-19T00:11:02;95614.75;;;18.59;100.00
43838;BME280;29493;46.516;6.638;2022-08-19T00:13:28;95619.53;;;18.50;100.00
43838;BME280;29493;46.516;6.638;2022-08-19T00:15:55;95612.09;;;18.53;100.00
43838;BME280;29493;46.516;6.638;2022-08-19T00:18:21;95606.72;;;18.55;100.00
43838;BME280;29493;46.516;6.638;2022-08-19T00:20:47;95607.06;;;18.51;100.00
43838;BME280;29493;46.516;6.638;2022-08-19T00:23:13;95606.88;;;18.49;100.00
43838;BME280;29493;46.516;6.638;2022-08-19T00:25:40;95602.41;;;18.46;100.00
43838;BME280;29493;46.516;6.638;2022-08-19T00:28:06;95603.16;;;18.47;100.00
43838;BME280;29493;46.516;6.638;2022-08-19T00:30:32;95613.34;;;18.44;100.00
43838;BME280;29493;46.516;6.638;2022-08-19T00:32:58;95607.22;;;18.46;100.00
43838;BME280;29493;46.516;6.638;2022-08-19T00:35:24;95606.81;;;18.42;100.00
43838;BME280;29493;46.516;6.638;2022-08-19T00:37:52;95609.00;;;18.36;100.00
43838;BME280;29493;46.516;6.638;2022-08-19T00:40:20;95610.84;;;18.33;100.00
43838;BME280;29493;46.516;6.638;2022-08-19T00:42:46;95606.03;;;18.34;100.00
43838;BME280;29493;46.516;6.638;2022-08-19T00:45:17;95602.69;;;18.35;100.00
43838;BME280;29493;46.516;6.638;2022-08-19T00:47:44;95608.06;;;18.33;100.00
43838;BME280;29493;46.516;6.638;2022-08-19T00:50:15;95607.13;;;18.31;100.00
43838;BME280;29493;46.516;6.638;2022-08-19T00:52:46;95597.81;;;18.28;100.00
43838;BME280;29493;46.516;6.638;2022-08-19T00:55:21;95610.09;;;18.33;100.00
43838;BME280;29493;46.516;6.638;2022-08-19T00:57:52;95612.19;;;18.40;100.00
43838;BME280;29493;46.516;6.638;2022-08-19T01:00:21;95621.84;;;18.39;100.00
43838;BME280;29493;46.516;6.638;2022-08-19T01:02:47;95623.91;;;18.38;100.00
43838;BME280;29493;46.516;6.638;2022-08-19T01:05:18;95629.88;;;18.42;100.00
43838;BME280;29493;46.516;6.638;2022-08-19T01:07:47;95631.72;;;18.40;100.00
43838;BME280;29493;46.516;6.638;2022-08-19T01:10:16;95638.25;;;18.42;100.00
43838;BME280;29493;46.516;6.638;2022-08-19T01:12:45;95644.38;;;18.41;100.00
43838;BME280;29493;46.516;6.638;2022-08-19T01:15:20;95644.72;;;18.37;100.00
43838;BME280;29493;46.516;6.638;2022-08-19T01:17:47;95645.47;;;18.38;100.00
43838;BME280;29493;46.516;6.638;2022-08-19T01:20:18;95646.75;;;18.37;100.00
43838;BME280;29493;46.516;6.638;2022-08-19T01:22:53;95641.56;;;18.41;100.00
43838;BME280;29493;46.516;6.638;2022-08-19T01:25:26;95650.69;;;18.41;100.00
43838;BME280;29493;46.516;6.638;2022-08-19T01:27:54;95641.03;;;18.42;100.00
43838;BME280;29493;46.516;6.638;2022-08-19T01:30:27;95639.13;;;18.37;100.00
43838;BME280;29493;46.516;6.638;2022-08-19T01:32:54;95635.41;;;18.35;100.00
43838;BME280;29493;46.516;6.638;2022-08-19T01:35:21;95641.31;;;18.31;100.00
43838;BME280;29493;46.516;6.638;2022-08-19T01:37:52;95630.91;;;18.32;100.00
43838;BME280;29493;46.516;6.638;2022-08-19T01:40:20;95635.53;;;18.29;100.00
43838;BME280;29493;46.516;6.638;2022-08-19T01:42:48;95640.50;;;18.23;100.00
43838;BME280;29493;46.516;6.638;2022-08-19T01:45:14;95640.91;;;18.27;100.00
43838;BME280;29493;46.516;6.638;2022-08-19T01:47:40;95639.22;;;18.24;100.00
43838;BME280;29493;46.516;6.638;2022-08-19T01:50:08;95641.78;;;18.22;100.00
43838;BME280;29493;46.516;6.638;2022-08-19T01:52:36;95638.25;;;18.22;100.00
43838;BME280;29493;46.516;6.638;2022-08-19T01:55:03;95631.94;;;18.21;100.00
43838;BME280;29493;46.516;6.638;2022-08-19T01:57:28;95626.97;;;18.27;100.00
43838;BME280;29493;46.516;6.638;2022-08-19T01:59:54;95631.25;;;18.28;100.00
43838;BME280;29493;46.516;6.638;2022-08-19T02:02:20;95624.78;;;18.33;100.00
43838;BME280;29493;46.516;6.638;2022-08-19T02:04:45;95629.63;;;18.33;100.00
43838;BME280;29493;46.516;6.638;2022-08-19T02:07:11;95634.25;;;18.30;100.00
43838;BME280;29493;46.516;6.638;2022-08-19T02:09:37;95639.56;;;18.21;100.00
43838;BME280;29493;46.516;6.638;2022-08-19T02:12:04;95641.94;;;18.16;100.00
43838;BME280;29493;46.516;6.638;2022-08-19T02:14:30;95630.91;;;18.11;100.00
43838;BME280;29493;46.516;6.638;2022-08-19T02:16:55;95630.50;;;18.07;100.00
43838;BME280;29493;46.516;6.638;2022-08-19T02:19:21;95642.94;;;18.06;100.00
43838;BME280;29493;46.516;6.638;2022-08-19T02:21:47;95642.41;;;18.07;100.00
43838;BME280;29493;46.516;6.638;2022-08-19T02:24:12;95642.69;;;18.17;100.00
43838;BME280;29493;46.516;6.638;2022-08-19T02:26:39;95645.66;;;18.19;100.00
43838;BME280;29493;46.516;6.638;2022-08-19T02:29:05;95641.94;;;18.16;100.00
43838;BME280;29493;46.516;6.638;2022-08-19T02:31:31;95656.41;;;18.15;100.00
43838;BME280;29493;46.516;6.638;2022-08-19T02:33:56;95661.97;;;18.15;100.00
43838;BME280;29493;46.516;6.638;2022-08-19T02:36:24;95661.91;;;18.07;100.00
43838;BME280;29493;46.516;6.638;2022-08-19T02:38:50;95664.09;;;18.01;100.00
43838;BME280;29493;46.516;6.638;2022-08-19T02:41:20;95675.56;;;17.98;100.00
43838;BME280;29493;46.516;6.638;2022-08-19T02:43:46;95681.47;;;17.94;100.00
43838;BME280;29493;46.516;6.638;2022-08-19T02:46:17;95680.84;;;17.88;100.00
43838;BME280;29493;46.516;6.638;2022-08-19T02:48:43;95692.22;;;17.90;100.00
43838;BME280;29493;46.516;6.638;2022-08-19T02:51:15;95689.09;;;17.94;100.00
43838;BME280;29493;46.516;6.638;2022-08-19T02:53:41;95692.75;;;17.89;100.00
43838;BME280;29493;46.516;6.638;2022-08-19T02:56:07;95692.94;;;17.91;100.00
43838;BME280;29493;46.516;6.638;2022-08-19T02:58:33;95690.16;;;17.91;100.00
43838;BME280;29493;46.516;6.638;2022-08-19T03:00:59;95696.16;;;17.95;100.00
43838;BME280;29493;46.516;6.638;2022-08-19T03:03:25;95688.13;;;17.91;100.00
43838;BME280;29493;46.516;6.638;2022-08-19T03:05:51;95696.28;;;17.89;100.00
43838;BME280;29493;46.516;6.638;2022-08-19T03:08:18;95705.59;;;17.92;100.00
43838;BME280;29493;46.516;6.638;2022-08-19T03:10:45;95711.38;;;17.94;100.00
43838;BME280;29493;46.516;6.638;2022-08-19T03:13:14;95708.78;;;17.96;100.00
43838;BME280;29493;46.516;6.638;2022-08-19T03:15:45;95706.88;;;17.91;100.00
43838;BME280;29493;46.516;6.638;2022-08-19T03:18:12;95709.66;;;17.91;100.00
43838;BME280;29493;46.516;6.638;2022-08-19T03:20:47;95717.34;;;17.98;100.00
43838;BME280;29493;46.516;6.638;2022-08-19T03:23:13;95712.53;;;17.98;100.00
43838;BME280;29493;46.516;6.638;2022-08-19T03:25:42;95713.06;;;17.97;100.00
43838;BME280;29493;46.516;6.638;2022-08-19T03:28:13;95709.22;;;18.00;100.00
43838;BME280;29493;46.516;6.638;2022-08-19T03:30:40;95708.25;;;17.97;100.00
43838;BME280;29493;46.516;6.638;2022-08-19T03:33:11;95709.00;;;17.98;100.00
43838;BME280;29493;46.516;6.638;2022-08-19T03:35:39;95704.59;;;18.02;100.00
43838;BME280;29493;46.516;6.638;2022-08-19T03:38:05;95707.91;;;18.01;100.00
43838;BME280;29493;46.516;6.638;2022-08-19T03:40:32;95695.53;;;17.89;100.00
43838;BME280;29493;46.516;6.638;2022-08-19T03:43:01;95703.06;;;17.80;100.00
43838;BME280;29493;46.516;6.638;2022-08-19T03:45:27;95696.00;;;17.79;100.00
43838;BME280;29493;46.516;6.638;2022-08-19T03:47:53;95704.56;;;17.81;100.00
43838;BME280;29493;46.516;6.638;2022-08-19T03:50:19;95702.31;;;17.80;100.00
43838;BME280;29493;46.516;6.638;2022-08-19T03:52:49;95707.88;;;17.80;100.00
43838;BME280;29493;46.516;6.638;2022-08-19T03:55:41;95713.56;;;17.74;100.00
43838;BME280;29493;46.516;6.638;2022-08-19T03:58:34;95725.66;;;17.77;100.00
43838;BME280;29493;46.516;6.638;2022-08-19T04:01:01;95722.13;;;17.76;100.00
43838;BME280;29493;46.516;6.638;2022-08-19T04:03:26;95728.78;;;17.73;100.00
43838;BME280;29493;46.516;6.638;2022-08-19T04:05:52;95732.19;;;17.66;100.00
43838;BME280;29493;46.516;6.638;2022-08-19T04:08:19;95733.69;;;17.67;100.00
43838;BME280;29493;46.516;6.638;2022-08-19T04:10:47;95731.44;;;17.66;100.00
43838;BME280;29493;46.516;6.638;2022-08-19T04:13:15;95735.28;;;17.63;100.00
43838;BME280;29493;46.516;6.638;2022-08-19T04:15:42;95737.84;;;17.61;100.00
43838;BME280;29493;46.516;6.638;2022-08-19T04:18:09;95733.56;;;17.60;100.00
43838;BME280;29493;46.516;6.638;2022-08-19T04:20:46;95740.66;;;17.61;100.00
43838;BME280;29493;46.516;6.638;2022-08-19T04:23:14;95739.34;;;17.62;100.00
43838;BME280;29493;46.516;6.638;2022-08-19T04:25:42;95742.88;;;17.62;100.00
43838;BME280;29493;46.516;6.638;2022-08-19T04:28:10;95744.19;;;17.61;100.00
43838;BME280;29493;46.516;6.638;2022-08-19T04:30:44;95751.78;;;17.61;100.00
43838;BME280;29493;46.516;6.638;2022-08-19T04:33:13;95751.47;;;17.64;100.00
43838;BME280;29493;46.516;6.638;2022-08-19T04:35:43;95750.50;;;17.62;100.00
43838;BME280;29493;46.516;6.638;2022-08-19T04:38:10;95753.81;;;17.60;100.00
43838;BME280;29493;46.516;6.638;2022-08-19T04:40:45;95749.13;;;17.55;100.00
43838;BME280;29493;46.516;6.638;2022-08-19T04:43:30;95761.31;;;17.52;100.00
43838;BME280;29493;46.516;6.638;2022-08-19T04:45:56;95762.41;;;17.49;100.00
43838;BME280;29493;46.516;6.638;2022-08-19T04:48:22;95764.66;;;17.50;100.00
43838;BME280;29493;46.516;6.638;2022-08-19T04:50:56;95759.63;;;17.49;100.00
43838;BME280;29493;46.516;6.638;2022-08-19T04:53:30;95760.38;;;17.49;100.00
43838;BME280;29493;46.516;6.638;2022-08-19T04:55:59;95758.53;;;17.52;100.00
43838;BME280;29493;46.516;6.638;2022-08-19T04:58:27;95765.81;;;17.55;100.00
43838;BME280;29493;46.516;6.638;2022-08-19T05:00:53;95768.06;;;17.56;100.00
43838;BME280;29493;46.516;6.638;2022-08-19T05:03:20;95767.63;;;17.52;100.00
43838;BME280;29493;46.516;6.638;2022-08-19T05:05:47;95768.94;;;17.51;100.00
43838;BME280;29493;46.516;6.638;2022-08-19T05:08:19;95775.56;;;17.48;100.00
43838;BME280;29493;46.516;6.638;2022-08-19T05:10:50;95776.31;;;17.49;100.00
43838;BME280;29493;46.516;6.638;2022-08-19T05:13:18;95783.38;;;17.50;100.00
43838;BME280;29493;46.516;6.638;2022-08-19T05:15:53;95789.91;;;17.52;100.00
43838;BME280;29493;46.516;6.638;2022-08-19T05:18:19;95785.09;;;17.53;100.00
43838;BME280;29493;46.516;6.638;2022-08-19T05:21:10;95795.06;;;17.48;100.00
43838;BME280;29493;46.516;6.638;2022-08-19T05:23:55;95789.59;;;17.43;100.00
43838;BME280;29493;46.516;6.638;2022-08-19T05:26:21;95799.34;;;17.36;100.00
43838;BME280;29493;46.516;6.638;2022-08-19T05:28:47;95802.66;;;17.35;100.00
43838;BME280;29493;46.516;6.638;2022-08-19T05:31:12;95812.94;;;17.27;100.00
43838;BME280;29493;46.516;6.638;2022-08-19T05:33:39;95813.56;;;17.33;100.00
43838;BME280;29493;46.516;6.638;2022-08-19T05:36:05;95814.31;;;17.33;100.00
43838;BME280;29493;46.516;6.638;2022-08-19T05:38:34;95825.88;;;17.24;100.00
43838;BME280;29493;46.516;6.638;2022-08-19T05:41:07;95820.09;;;17.22;100.00
43838;BME280;29493;46.516;6.638;2022-08-19T05:43:33;95819.34;;;17.21;100.00
43838;BME280;29493;46.516;6.638;2022-08-19T05:45:58;95819.56;;;17.23;100.00
43838;BME280;29493;46.516;6.638;2022-08-19T05:48:24;95817.84;;;17.20;100.00
43838;BME280;29493;46.516;6.638;2022-08-19T05:50:50;95827.91;;;17.23;100.00
43838;BME280;29493;46.516;6.638;2022-08-19T05:53:16;95823.84;;;17.24;100.00
43838;BME280;29493;46.516;6.638;2022-08-19T05:55:42;95815.72;;;17.27;100.00
43838;BME280;29493;46.516;6.638;2022-08-19T05:58:08;95819.47;;;17.29;100.00
43838;BME280;29493;46.516;6.638;2022-08-19T06:00:35;95823.75;;;17.30;100.00
43838;BME280;29493;46.516;6.638;2022-08-19T06:03:01;95829.63;;;17.27;100.00
43838;BME280;29493;46.516;6.638;2022-08-19T06:05:31;95824.81;;;17.27;100.00
43838;BME280;29493;46.516;6.638;2022-08-19T06:07:58;95833.69;;;17.26;100.00
43838;BME280;29493;46.516;6.638;2022-08-19T06:10:27;95841.41;;;17.19;100.00
43838;BME280;29493;46.516;6.638;2022-08-19T06:12:53;95839.56;;;17.22;100.00
43838;BME280;29493;46.516;6.638;2022-08-19T06:15:19;95846.00;;;17.17;100.00
43838;BME280;29493;46.516;6.638;2022-08-19T06:17:46;95844.06;;;17.12;100.00
43838;BME280;29493;46.516;6.638;2022-08-19T06:20:14;95855.28;;;17.06;100.00
43838;BME280;29493;46.516;6.638;2022-08-19T06:22:42;95851.53;;;17.04;100.00
43838;BME280;29493;46.516;6.638;2022-08-19T06:25:08;95864.16;;;17.05;100.00
43838;BME280;29493;46.516;6.638;2022-08-19T06:27:34;95868.53;;;17.00;100.00
43838;BME280;29493;46.516;6.638;2022-08-19T06:30:02;95860.72;;;16.99;100.00
43838;BME280;29493;46.516;6.638;2022-08-19T06:32:28;95877.63;;;17.01;100.00
43838;BME280;29493;46.516;6.638;2022-08-19T06:34:54;95887.56;;;16.96;100.00
43838;BME280;29493;46.516;6.638;2022-08-19T06:37:20;95883.81;;;16.94;100.00
43838;BME280;29493;46.516;6.638;2022-08-19T06:39:48;95884.13;;;16.90;100.00
43838;BME280;29493;46.516;6.638;2022-08-19T06:42:14;95888.19;;;16.89;100.00
43838;BME280;29493;46.516;6.638;2022-08-19T06:44:46;95889.47;;;16.88;100.00
43838;BME280;29493;46.516;6.638;2022-08-19T06:47:17;95891.94;;;16.91;100.00
43838;BME280;29493;46.516;6.638;2022-08-19T06:49:43;95897.19;;;16.95;100.00
43838;BME280;29493;46.516;6.638;2022-08-19T06:52:11;95896.88;;;16.99;100.00
43838;BME280;29493;46.516;6.638;2022-08-19T06:54:38;95902.22;;;16.97;100.00
43838;BME280;29493;46.516;6.638;2022-08-19T06:57:05;95906.97;;;17.02;100.00
43838;BME280;29493;46.516;6.638;2022-08-19T06:59:32;95907.72;;;17.02;100.00
43838;BME280;29493;46.516;6.638;2022-08-19T07:02:03;95908.84;;;16.94;100.00
43838;BME280;29493;46.516;6.638;2022-08-19T07:04:33;95920.94;;;16.96;100.00
43838;BME280;29493;46.516;6.638;2022-08-19T07:07:06;95918.91;;;16.97;100.00
43838;BME280;29493;46.516;6.638;2022-08-19T07:09:34;95926.22;;;17.00;100.00
43838;BME280;29493;46.516;6.638;2022-08-19T07:12:04;95927.94;;;17.03;100.00
43838;BME280;29493;46.516;6.638;2022-08-19T07:14:33;95922.81;;;17.07;100.00
43838;BME280;29493;46.516;6.638;2022-08-19T07:17:05;95927.31;;;17.10;100.00
43838;BME280;29493;46.516;6.638;2022-08-19T07:19:32;95926.25;;;17.13;100.00
43838;BME280;29493;46.516;6.638;2022-08-19T07:22:01;95934.81;;;17.15;100.00
43838;BME280;29493;46.516;6.638;2022-08-19T07:24:28;95935.25;;;17.19;100.00
43838;BME280;29493;46.516;6.638;2022-08-19T07:26:56;95929.16;;;17.20;100.00
43838;BME280;29493;46.516;6.638;2022-08-19T07:29:27;95928.50;;;17.14;100.00
43838;BME280;29493;46.516;6.638;2022-08-19T07:31:54;95933.00;;;17.17;100.00
43838;BME280;29493;46.516;6.638;2022-08-19T07:34:25;95933.63;;;17.10;100.00
43838;BME280;29493;46.516;6.638;2022-08-19T07:36:52;95930.00;;;17.15;100.00
43838;BME280;29493;46.516;6.638;2022-08-19T07:39:38;95927.00;;;17.13;100.00
43838;BME280;29493;46.516;6.638;2022-08-19T07:42:08;95933.09;;;17.12;100.00
43838;BME280;29493;46.516;6.638;2022-08-19T07:44:36;95934.16;;;17.09;100.00
43838;BME280;29493;46.516;6.638;2022-08-19T07:47:04;95932.25;;;17.17;100.00
43838;BME280;29493;46.516;6.638;2022-08-19T07:49:30;95933.13;;;17.25;100.00
43838;BME280;29493;46.516;6.638;2022-08-19T07:52:06;95934.00;;;17.33;100.00
43838;BME280;29493;46.516;6.638;2022-08-19T07:54:34;95928.13;;;17.37;100.00
43838;BME280;29493;46.516;6.638;2022-08-19T07:57:01;95934.66;;;17.39;100.00
43838;BME280;29493;46.516;6.638;2022-08-19T07:59:27;95938.75;;;17.38;100.00
43838;BME280;29493;46.516;6.638;2022-08-19T08:01:54;95940.78;;;17.38;100.00
43838;BME280;29493;46.516;6.638;2022-08-19T08:04:20;95943.47;;;17.43;100.00
43838;BME280;29493;46.516;6.638;2022-08-19T08:07:06;95945.94;;;17.47;100.00
43838;BME280;29493;46.516;6.638;2022-08-19T08:09:52;95947.00;;;17.44;100.00
43838;BME280;29493;46.516;6.638;2022-08-19T08:12:21;95952.34;;;17.42;100.00
43838;BME280;29493;46.516;6.638;2022-08-19T08:14:52;95944.66;;;17.48;100.00
43838;BME280;29493;46.516;6.638;2022-08-19T08:17:21;95948.81;;;17.41;100.00
43838;BME280;29493;46.516;6.638;2022-08-19T08:19:47;95952.34;;;17.42;100.00
43838;BME280;29493;46.516;6.638;2022-08-19T08:22:17;95957.06;;;17.47;100.00
43838;BME280;29493;46.516;6.638;2022-08-19T08:25:11;95960.28;;;17.51;100.00
43838;BME280;29493;46.516;6.638;2022-08-19T08:27:38;95947.66;;;17.50;100.00
43838;BME280;29493;46.516;6.638;2022-08-19T08:30:07;95950.44;;;17.50;100.00
43838;BME280;29493;46.516;6.638;2022-08-19T08:32:38;95959.22;;;17.54;100.00
43838;BME280;29493;46.516;6.638;2022-08-19T08:35:06;95956.56;;;17.62;100.00
43838;BME280;29493;46.516;6.638;2022-08-19T08:37:33;95955.56;;;17.78;100.00
43838;BME280;29493;46.516;6.638;2022-08-19T08:39:58;95964.38;;;17.82;100.00
43838;BME280;29493;46.516;6.638;2022-08-19T08:42:32;95957.50;;;17.83;100.00
43838;BME280;29493;46.516;6.638;2022-08-19T08:47:36;95962.00;;;17.86;100.00
43838;BME280;29493;46.516;6.638;2022-08-19T08:50:19;95971.56;;;17.91;100.00
43838;BME280;29493;46.516;6.638;2022-08-19T08:52:53;95972.63;;;17.88;100.00
43838;BME280;29493;46.516;6.638;2022-08-19T08:55:25;95970.25;;;17.92;100.00
43838;BME280;29493;46.516;6.638;2022-08-19T08:57:56;95971.34;;;18.02;100.00
43838;BME280;29493;46.516;6.638;2022-08-19T09:00:36;95970.81;;;18.03;100.00
43838;BME280;29493;46.516;6.638;2022-08-19T09:03:03;95970.69;;;18.09;100.00
43838;BME280;29493;46.516;6.638;2022-08-19T09:06:00;95972.63;;;18.14;100.00
43838;BME280;29493;46.516;6.638;2022-08-19T09:10:54;95980.78;;;18.12;100.00
43838;BME280;29493;46.516;6.638;2022-08-19T09:13:41;95984.84;;;18.11;100.00
43838;BME280;29493;46.516;6.638;2022-08-19T09:16:16;95987.63;;;18.11;100.00
43838;BME280;29493;46.516;6.638;2022-08-19T09:18:46;95990.63;;;18.13;100.00
43838;BME280;29493;46.516;6.638;2022-08-19T09:21:14;95992.16;;;18.14;100.00
43838;BME280;29493;46.516;6.638;2022-08-19T09:23:40;95994.94;;;18.14;100.00
43838;BME280;29493;46.516;6.638;2022-08-19T09:26:08;96004.91;;;18.09;100.00
43838;BME280;29493;46.516;6.638;2022-08-19T09:28:34;96006.28;;;18.16;100.00
43838;BME280;29493;46.516;6.638;2022-08-19T09:31:02;96004.25;;;18.16;100.00
43838;BME280;29493;46.516;6.638;2022-08-19T09:33:28;95996.97;;;18.13;100.00
43838;BME280;29493;46.516;6.638;2022-08-19T09:36:13;96002.44;;;18.19;100.00
43838;BME280;29493;46.516;6.638;2022-08-19T09:38:41;96009.19;;;18.24;100.00
43838;BME280;29493;46.516;6.638;2022-08-19T09:41:10;96009.72;;;18.22;100.00
43838;BME280;29493;46.516;6.638;2022-08-19T09:43:37;96019.16;;;18.19;100.00
43838;BME280;29493;46.516;6.638;2022-08-19T09:46:04;96026.03;;;18.18;100.00
43838;BME280;29493;46.516;6.638;2022-08-19T09:48:50;96016.59;;;18.21;100.00
43838;BME280;29493;46.516;6.638;2022-08-19T09:51:23;96019.38;;;18.21;100.00
43838;BME280;29493;46.516;6.638;2022-08-19T09:53:49;96020.34;;;18.24;100.00
43838;BME280;29493;46.516;6.638;2022-08-19T09:56:18;96020.97;;;18.30;100.00
43838;BME280;29493;46.516;6.638;2022-08-19T09:58:44;96020.66;;;18.33;100.00
43838;BME280;29493;46.516;6.638;2022-08-19T10:01:23;96022.69;;;18.33;100.00
43838;BME280;29493;46.516;6.638;2022-08-19T10:03:52;96022.38;;;18.36;100.00
43838;BME280;29493;46.516;6.638;2022-08-19T10:06:20;96030.09;;;18.43;100.00
43838;BME280;29493;46.516;6.638;2022-08-19T10:08:46;96029.88;;;18.41;100.00
43838;BME280;29493;46.516;6.638;2022-08-19T10:11:13;96033.53;;;18.49;100.00
43838;BME280;29493;46.516;6.638;2022-08-19T10:13:42;96031.91;;;18.54;100.00
43838;BME280;29493;46.516;6.638;2022-08-19T10:16:14;96026.00;;;18.58;100.00
43838;BME280;29493;46.516;6.638;2022-08-19T10:18:41;96024.72;;;18.59;100.00
43838;BME280;29493;46.516;6.638;2022-08-19T10:23:45;96027.84;;;18.68;100.00
43838;BME280;29493;46.516;6.638;2022-08-19T10:26:18;96030.44;;;18.66;100.00
43838;BME280;29493;46.516;6.638;2022-08-19T10:28:44;96029.06;;;18.73;100.00
43838;BME280;29493;46.516;6.638;2022-08-19T10:31:13;96028.72;;;18.76;100.00
43838;BME280;29493;46.516;6.638;2022-08-19T10:33:40;96028.28;;;18.86;100.00
43838;BME280;29493;46.516;6.638;2022-08-19T10:36:16;96033.88;;;18.86;100.00
43838;BME280;29493;46.516;6.638;2022-08-19T10:38:45;96033.00;;;18.91;100.00
43838;BME280;29493;46.516;6.638;2022-08-19T10:41:14;96035.56;;;18.89;100.00
43838;BME280;29493;46.516;6.638;2022-08-19T10:43:40;96043.19;;;18.88;100.00
43838;BME280;29493;46.516;6.638;2022-08-19T10:46:09;96035.25;;;18.92;100.00
43838;BME280;29493;46.516;6.638;2022-08-19T10:48:36;96036.41;;;18.97;100.00
43838;BME280;29493;46.516;6.638;2022-08-19T10:51:02;96038.78;;;18.93;100.00
43838;BME280;29493;46.516;6.638;2022-08-19T10:53:47;96046.72;;;19.02;100.00
43838;BME280;29493;46.516;6.638;2022-08-19T10:56:13;96041.31;;;19.17;100.00
43838;BME280;29493;46.516;6.638;2022-08-19T10:58:57;96045.34;;;19.29;100.00
43838;BME280;29493;46.516;6.638;2022-08-19T11:01:27;96041.69;;;19.34;100.00
43838;BME280;29493;46.516;6.638;2022-08-19T11:03:55;96045.44;;;19.37;100.00
43838;BME280;29493;46.516;6.638;2022-08-19T11:06:23;96043.78;;;19.41;100.00
43838;BME280;29493;46.516;6.638;2022-08-19T11:08:51;96046.38;;;19.39;100.00
43838;BME280;29493;46.516;6.638;2022-08-19T11:11:17;96039.47;;;19.54;100.00
43838;BME280;29493;46.516;6.638;2022-08-19T11:13:43;96045.13;;;19.61;100.00
43838;BME280;29493;46.516;6.638;2022-08-19T11:16:17;96048.34;;;19.65;100.00
43838;BME280;29493;46.516;6.638;2022-08-19T11:18:46;96045.13;;;19.61;100.00
43838;BME280;29493;46.516;6.638;2022-08-19T11:21:16;96040.63;;;19.58;100.00
43838;BME280;29493;46.516;6.638;2022-08-19T11:23:48;96045.59;;;19.52;100.00
43838;BME280;29493;46.516;6.638;2022-08-19T11:26:15;96034.00;;;19.48;100.00
43838;BME280;29493;46.516;6.638;2022-08-19T11:28:41;96038.63;;;19.45;100.00
43838;BME280;29493;46.516;6.638;2022-08-19T11:31:12;96043.66;;;19.47;100.00
43838;BME280;29493;46.516;6.638;2022-08-19T11:33:38;96050.34;;;19.44;100.00
43838;BME280;29493;46.516;6.638;2022-08-19T11:36:04;96047.75;;;19.46;100.00
43838;BME280;29493;46.516;6.638;2022-08-19T11:38:30;96050.88;;;19.42;100.00
43838;BME280;29493;46.516;6.638;2022-08-19T11:40:57;96050.53;;;19.46;100.00
43838;BME280;29493;46.516;6.638;2022-08-19T11:43:23;96053.22;;;19.52;100.00
43838;BME280;29493;46.516;6.638;2022-08-19T11:45:48;96054.28;;;19.62;100.00
43838;BME280;29493;46.516;6.638;2022-08-19T11:48:14;96053.38;;;19.67;100.00
43838;BME280;29493;46.516;6.638;2022-08-19T11:50:39;96056.38;;;19.69;100.00
43838;BME280;29493;46.516;6.638;2022-08-19T11:53:07;96061.19;;;19.82;100.00
